sensor_id;sensor_type;location;lat;lon;timestamp;P1;durP1;ratioP1;P2;durP2;ratioP2
37859;SDS011;23698;52.014;5.190;2023-02-08T00:00:04;32.58;;;13.05;;
37859;SDS011;23698;52.014;5.190;2023-02-08T00:02:51;33.55;;;15.32;;
37859;SDS011;23698;52.014;5.190;2023-02-08T00:05:38;36.65;;;15.82;;
37859;SDS011;23698;52.014;5.190;2023-02-08T00:08:25;33.45;;;14.75;;
37859;SDS011;23698;52.014;5.190;2023-02-08T00:11:13;33.78;;;15.35;;
37859;SDS011;23698;52.014;5.190;2023-02-08T00:13:59;29.80;;;13.18;;
37859;SDS011;23698;52.014;5.190;2023-02-08T00:16:46;26.02;;;13.07;;
37859;SDS011;23698;52.014;5.190;2023-02-08T00:19:33;27.58;;;13.00;;
37859;SDS011;23698;52.014;5.190;2023-02-08T00:22:19;29.48;;;13.43;;
37859;SDS011;23698;52.014;5.190;2023-02-08T00:25:06;29.38;;;13.15;;
37859;SDS011;23698;52.014;5.190;2023-02-08T00:27:55;27.20;;;13.68;;
37859;SDS011;23698;52.014;5.190;2023-02-08T00:30:42;30.45;;;15.27;;
37859;SDS011;23698;52.014;5.190;2023-02-08T00:33:29;30.05;;;14.75;;
37859;SDS011;23698;52.014;5.190;2023-02-08T00:36:16;30.38;;;13.98;;
37859;SDS011;23698;52.014;5.190;2023-02-08T00:39:03;31.95;;;13.48;;
37859;SDS011;23698;52.014;5.190;2023-02-08T00:41:49;23.35;;;12.68;;
37859;SDS011;23698;52.014;5.190;2023-02-08T00:44:38;33.53;;;13.13;;
37859;SDS011;23698;52.014;5.190;2023-02-08T00:47:25;27.27;;;13.15;;
37859;SDS011;23698;52.014;5.190;2023-02-08T00:50:11;30.40;;;13.55;;
37859;SDS011;23698;52.014;5.190;2023-02-08T00:52:58;26.17;;;12.75;;
37859;SDS011;23698;52.014;5.190;2023-02-08T00:55:49;26.10;;;13.77;;
37859;SDS011;23698;52.014;5.190;2023-02-08T00:58:36;25.17;;;12.68;;
37859;SDS011;23698;52.014;5.190;2023-02-08T01:01:24;24.48;;;13.48;;
37859;SDS011;23698;52.014;5.190;2023-02-08T01:04:10;26.95;;;12.90;;
37859;SDS011;23698;52.014;5.190;2023-02-08T01:06:57;25.92;;;13.40;;
37859;SDS011;23698;52.014;5.190;2023-02-08T01:09:43;27.23;;;12.60;;
37859;SDS011;23698;52.014;5.190;2023-02-08T01:12:30;26.10;;;12.60;;
37859;SDS011;23698;52.014;5.190;2023-02-08T01:15:17;27.20;;;13.65;;
37859;SDS011;23698;52.014;5.190;2023-02-08T01:18:05;25.73;;;13.38;;
37859;SDS011;23698;52.014;5.190;2023-02-08T01:20:52;24.10;;;12.20;;
37859;SDS011;23698;52.014;5.190;2023-02-08T01:23:38;25.08;;;13.07;;
37859;SDS011;23698;52.014;5.190;2023-02-08T01:26:25;25.05;;;12.60;;
37859;SDS011;23698;52.014;5.190;2023-02-08T01:29:13;24.40;;;11.93;;
37859;SDS011;23698;52.014;5.190;2023-02-08T01:31:59;25.63;;;13.13;;
37859;SDS011;23698;52.014;5.190;2023-02-08T01:34:48;25.60;;;12.75;;
37859;SDS011;23698;52.014;5.190;2023-02-08T01:37:34;27.98;;;12.35;;
37859;SDS011;23698;52.014;5.190;2023-02-08T01:40:20;24.90;;;12.52;;
37859;SDS011;23698;52.014;5.190;2023-02-08T01:43:10;25.80;;;12.50;;
37859;SDS011;23698;52.014;5.190;2023-02-08T01:46:05;25.92;;;12.73;;
37859;SDS011;23698;52.014;5.190;2023-02-08T01:48:53;26.85;;;13.05;;
37859;SDS011;23698;52.014;5.190;2023-02-08T01:51:47;28.35;;;12.32;;
37859;SDS011;23698;52.014;5.190;2023-02-08T01:54:38;28.27;;;13.40;;
37859;SDS011;23698;52.014;5.190;2023-02-08T01:57:29;25.65;;;13.90;;
37859;SDS011;23698;52.014;5.190;2023-02-08T02:00:17;25.55;;;12.70;;
37859;SDS011;23698;52.014;5.190;2023-02-08T02:03:06;30.10;;;13.30;;
37859;SDS011;23698;52.014;5.190;2023-02-08T02:05:56;30.15;;;14.20;;
37859;SDS011;23698;52.014;5.190;2023-02-08T02:08:50;31.50;;;13.07;;
37859;SDS011;23698;52.014;5.190;2023-02-08T02:11:47;28.52;;;13.15;;
37859;SDS011;23698;52.014;5.190;2023-02-08T02:14:36;26.70;;;13.95;;
37859;SDS011;23698;52.014;5.190;2023-02-08T02:17:24;26.13;;;13.25;;
37859;SDS011;23698;52.014;5.190;2023-02-08T02:20:18;26.23;;;13.75;;
37859;SDS011;23698;52.014;5.190;2023-02-08T02:23:17;26.58;;;12.70;;
37859;SDS011;23698;52.014;5.190;2023-02-08T02:26:37;31.92;;;13.85;;
37859;SDS011;23698;52.014;5.190;2023-02-08T02:30:06;27.40;;;13.40;;
37859;SDS011;23698;52.014;5.190;2023-02-08T02:39:14;24.17;;;11.57;;
37859;SDS011;23698;52.014;5.190;2023-02-08T02:42:09;25.13;;;12.23;;
37859;SDS011;23698;52.014;5.190;2023-02-08T02:45:19;25.73;;;13.18;;
37859;SDS011;23698;52.014;5.190;2023-02-08T02:48:11;27.52;;;12.48;;
37859;SDS011;23698;52.014;5.190;2023-02-08T02:51:06;32.00;;;14.02;;
37859;SDS011;23698;52.014;5.190;2023-02-08T02:53:57;27.83;;;12.95;;
37859;SDS011;23698;52.014;5.190;2023-02-08T02:56:48;22.88;;;11.80;;
37859;SDS011;23698;52.014;5.190;2023-02-08T02:59:37;27.98;;;12.88;;
37859;SDS011;23698;52.014;5.190;2023-02-08T03:02:25;23.58;;;12.18;;
37859;SDS011;23698;52.014;5.190;2023-02-08T03:05:13;26.30;;;12.60;;
37859;SDS011;23698;52.014;5.190;2023-02-08T03:08:09;23.65;;;12.18;;
37859;SDS011;23698;52.014;5.190;2023-02-08T03:11:13;23.83;;;12.68;;
37859;SDS011;23698;52.014;5.190;2023-02-08T03:17:22;27.58;;;12.48;;
37859;SDS011;23698;52.014;5.190;2023-02-08T03:20:20;25.88;;;12.77;;
37859;SDS011;23698;52.014;5.190;2023-02-08T03:23:12;24.50;;;12.25;;
37859;SDS011;23698;52.014;5.190;2023-02-08T03:26:06;26.33;;;12.05;;
37859;SDS011;23698;52.014;5.190;2023-02-08T03:29:02;24.20;;;12.52;;
37859;SDS011;23698;52.014;5.190;2023-02-08T03:31:55;22.27;;;12.73;;
37859;SDS011;23698;52.014;5.190;2023-02-08T03:34:45;24.17;;;12.15;;
37859;SDS011;23698;52.014;5.190;2023-02-08T03:37:38;25.23;;;11.93;;
37859;SDS011;23698;52.014;5.190;2023-02-08T03:40:34;25.08;;;12.75;;
37859;SDS011;23698;52.014;5.190;2023-02-08T03:43:25;25.92;;;12.77;;
37859;SDS011;23698;52.014;5.190;2023-02-08T03:46:17;21.60;;;11.85;;
37859;SDS011;23698;52.014;5.190;2023-02-08T03:49:08;29.35;;;13.02;;
37859;SDS011;23698;52.014;5.190;2023-02-08T03:51:59;26.70;;;12.75;;
37859;SDS011;23698;52.014;5.190;2023-02-08T03:54:48;25.60;;;12.93;;
37859;SDS011;23698;52.014;5.190;2023-02-08T03:57:39;27.75;;;13.27;;
37859;SDS011;23698;52.014;5.190;2023-02-08T04:00:32;26.70;;;12.68;;
37859;SDS011;23698;52.014;5.190;2023-02-08T04:03:25;30.88;;;12.43;;
37859;SDS011;23698;52.014;5.190;2023-02-08T04:06:14;26.58;;;11.85;;
37859;SDS011;23698;52.014;5.190;2023-02-08T04:09:01;32.25;;;12.68;;
37859;SDS011;23698;52.014;5.190;2023-02-08T04:11:47;25.63;;;12.60;;
37859;SDS011;23698;52.014;5.190;2023-02-08T04:14:35;26.15;;;12.40;;
37859;SDS011;23698;52.014;5.190;2023-02-08T04:17:22;26.70;;;11.98;;
37859;SDS011;23698;52.014;5.190;2023-02-08T04:20:09;20.83;;;11.02;;
37859;SDS011;23698;52.014;5.190;2023-02-08T04:22:56;21.70;;;12.15;;
37859;SDS011;23698;52.014;5.190;2023-02-08T04:25:43;23.35;;;11.95;;
37859;SDS011;23698;52.014;5.190;2023-02-08T04:28:30;23.83;;;11.35;;
37859;SDS011;23698;52.014;5.190;2023-02-08T04:31:17;27.15;;;12.73;;
37859;SDS011;23698;52.014;5.190;2023-02-08T04:34:04;21.02;;;11.63;;
37859;SDS011;23698;52.014;5.190;2023-02-08T04:36:51;25.58;;;11.95;;
37859;SDS011;23698;52.014;5.190;2023-02-08T04:39:37;24.27;;;12.13;;
37859;SDS011;23698;52.014;5.190;2023-02-08T04:42:24;25.65;;;12.02;;
37859;SDS011;23698;52.014;5.190;2023-02-08T04:45:11;23.73;;;11.27;;
37859;SDS011;23698;52.014;5.190;2023-02-08T04:48:00;25.42;;;11.57;;
37859;SDS011;23698;52.014;5.190;2023-02-08T04:50:48;22.15;;;12.27;;
37859;SDS011;23698;52.014;5.190;2023-02-08T04:53:34;22.42;;;10.90;;
37859;SDS011;23698;52.014;5.190;2023-02-08T04:56:21;31.08;;;14.00;;
37859;SDS011;23698;52.014;5.190;2023-02-08T04:59:08;47.55;;;22.15;;
37859;SDS011;23698;52.014;5.190;2023-02-08T05:01:55;43.42;;;18.00;;
37859;SDS011;23698;52.014;5.190;2023-02-08T05:04:43;27.13;;;13.63;;
37859;SDS011;23698;52.014;5.190;2023-02-08T05:07:30;28.80;;;13.93;;
37859;SDS011;23698;52.014;5.190;2023-02-08T05:10:17;29.17;;;13.25;;
37859;SDS011;23698;52.014;5.190;2023-02-08T05:13:03;24.75;;;12.93;;
37859;SDS011;23698;52.014;5.190;2023-02-08T05:15:50;28.63;;;13.18;;
37859;SDS011;23698;52.014;5.190;2023-02-08T05:18:36;26.08;;;12.13;;
37859;SDS011;23698;52.014;5.190;2023-02-08T05:21:24;26.02;;;11.82;;
37859;SDS011;23698;52.014;5.190;2023-02-08T05:24:11;26.33;;;12.63;;
37859;SDS011;23698;52.014;5.190;2023-02-08T05:26:58;30.52;;;14.93;;
37859;SDS011;23698;52.014;5.190;2023-02-08T05:29:45;31.63;;;13.15;;
37859;SDS011;23698;52.014;5.190;2023-02-08T05:32:31;27.25;;;14.02;;
37859;SDS011;23698;52.014;5.190;2023-02-08T05:35:18;28.25;;;13.43;;
37859;SDS011;23698;52.014;5.190;2023-02-08T05:38:06;23.52;;;11.55;;
37859;SDS011;23698;52.014;5.190;2023-02-08T05:40:53;25.67;;;12.73;;
37859;SDS011;23698;52.014;5.190;2023-02-08T05:43:39;24.05;;;12.82;;
37859;SDS011;23698;52.014;5.190;2023-02-08T05:46:26;27.80;;;12.88;;
37859;SDS011;23698;52.014;5.190;2023-02-08T05:49:13;23.15;;;11.95;;
37859;SDS011;23698;52.014;5.190;2023-02-08T05:51:59;30.10;;;15.70;;
37859;SDS011;23698;52.014;5.190;2023-02-08T05:54:48;28.33;;;14.27;;
37859;SDS011;23698;52.014;5.190;2023-02-08T05:57:34;27.48;;;14.20;;
37859;SDS011;23698;52.014;5.190;2023-02-08T06:00:22;29.20;;;13.60;;
37859;SDS011;23698;52.014;5.190;2023-02-08T06:03:09;29.55;;;14.68;;
37859;SDS011;23698;52.014;5.190;2023-02-08T06:05:58;30.02;;;13.95;;
37859;SDS011;23698;52.014;5.190;2023-02-08T06:08:46;27.27;;;13.23;;
37859;SDS011;23698;52.014;5.190;2023-02-08T06:11:34;29.67;;;14.15;;
37859;SDS011;23698;52.014;5.190;2023-02-08T06:14:21;35.38;;;14.65;;
37859;SDS011;23698;52.014;5.190;2023-02-08T06:17:08;35.35;;;14.82;;
37859;SDS011;23698;52.014;5.190;2023-02-08T06:19:54;35.58;;;16.02;;
37859;SDS011;23698;52.014;5.190;2023-02-08T06:22:41;32.60;;;15.73;;
37859;SDS011;23698;52.014;5.190;2023-02-08T06:25:28;35.58;;;15.48;;
37859;SDS011;23698;52.014;5.190;2023-02-08T06:28:17;34.20;;;16.77;;
37859;SDS011;23698;52.014;5.190;2023-02-08T06:31:03;29.33;;;14.63;;
37859;SDS011;23698;52.014;5.190;2023-02-08T06:33:50;31.67;;;15.27;;
37859;SDS011;23698;52.014;5.190;2023-02-08T06:36:37;24.95;;;13.63;;
37859;SDS011;23698;52.014;5.190;2023-02-08T06:39:23;30.15;;;13.75;;
37859;SDS011;23698;52.014;5.190;2023-02-08T06:42:10;29.67;;;14.20;;
37859;SDS011;23698;52.014;5.190;2023-02-08T06:44:58;28.30;;;14.63;;
37859;SDS011;23698;52.014;5.190;2023-02-08T06:47:45;32.42;;;14.57;;
37859;SDS011;23698;52.014;5.190;2023-02-08T06:50:32;27.75;;;12.75;;
37859;SDS011;23698;52.014;5.190;2023-02-08T06:53:18;21.27;;;12.07;;
37859;SDS011;23698;52.014;5.190;2023-02-08T06:56:05;30.08;;;14.25;;
37859;SDS011;23698;52.014;5.190;2023-02-08T06:58:52;27.38;;;13.25;;
37859;SDS011;23698;52.014;5.190;2023-02-08T07:01:40;24.75;;;12.75;;
37859;SDS011;23698;52.014;5.190;2023-02-08T07:04:27;26.70;;;13.52;;
37859;SDS011;23698;52.014;5.190;2023-02-08T07:07:14;23.88;;;13.18;;
37859;SDS011;23698;52.014;5.190;2023-02-08T07:10:02;25.98;;;12.55;;
37859;SDS011;23698;52.014;5.190;2023-02-08T07:12:48;25.20;;;13.25;;
37859;SDS011;23698;52.014;5.190;2023-02-08T07:15:36;24.10;;;12.73;;
37859;SDS011;23698;52.014;5.190;2023-02-08T07:18:24;27.48;;;12.27;;
37859;SDS011;23698;52.014;5.190;2023-02-08T07:21:10;27.98;;;13.73;;
37859;SDS011;23698;52.014;5.190;2023-02-08T07:23:57;27.30;;;13.68;;
37859;SDS011;23698;52.014;5.190;2023-02-08T07:26:44;26.77;;;12.88;;
37859;SDS011;23698;52.014;5.190;2023-02-08T07:29:30;27.10;;;13.07;;
37859;SDS011;23698;52.014;5.190;2023-02-08T07:32:18;26.27;;;13.13;;
37859;SDS011;23698;52.014;5.190;2023-02-08T07:35:06;23.00;;;11.60;;
37859;SDS011;23698;52.014;5.190;2023-02-08T07:37:54;25.77;;;13.65;;
37859;SDS011;23698;52.014;5.190;2023-02-08T07:40:40;26.20;;;12.15;;
37859;SDS011;23698;52.014;5.190;2023-02-08T07:43:27;24.35;;;13.60;;
37859;SDS011;23698;52.014;5.190;2023-02-08T07:46:18;26.05;;;14.02;;
37859;SDS011;23698;52.014;5.190;2023-02-08T07:49:05;23.67;;;12.65;;
37859;SDS011;23698;52.014;5.190;2023-02-08T07:51:53;27.38;;;12.30;;
37859;SDS011;23698;52.014;5.190;2023-02-08T07:54:40;28.10;;;12.88;;
37859;SDS011;23698;52.014;5.190;2023-02-08T07:57:27;25.00;;;12.57;;
37859;SDS011;23698;52.014;5.190;2023-02-08T08:00:14;26.52;;;13.55;;
37859;SDS011;23698;52.014;5.190;2023-02-08T08:03:02;26.55;;;13.75;;
37859;SDS011;23698;52.014;5.190;2023-02-08T08:05:49;29.35;;;13.27;;
37859;SDS011;23698;52.014;5.190;2023-02-08T08:08:40;27.17;;;13.00;;
37859;SDS011;23698;52.014;5.190;2023-02-08T08:11:31;26.65;;;13.20;;
37859;SDS011;23698;52.014;5.190;2023-02-08T08:14:18;28.77;;;13.70;;
37859;SDS011;23698;52.014;5.190;2023-02-08T08:17:05;28.30;;;13.68;;
37859;SDS011;23698;52.014;5.190;2023-02-08T08:19:52;25.30;;;12.65;;
37859;SDS011;23698;52.014;5.190;2023-02-08T08:22:38;26.63;;;12.48;;
37859;SDS011;23698;52.014;5.190;2023-02-08T08:25:26;25.13;;;12.18;;
37859;SDS011;23698;52.014;5.190;2023-02-08T08:28:13;24.33;;;11.13;;
37859;SDS011;23698;52.014;5.190;2023-02-08T08:31:00;23.42;;;10.85;;
37859;SDS011;23698;52.014;5.190;2023-02-08T08:33:47;25.55;;;11.23;;
37859;SDS011;23698;52.014;5.190;2023-02-08T08:36:34;25.38;;;12.75;;
37859;SDS011;23698;52.014;5.190;2023-02-08T08:39:21;22.55;;;11.60;;
37859;SDS011;23698;52.014;5.190;2023-02-08T08:42:09;22.10;;;11.30;;
37859;SDS011;23698;52.014;5.190;2023-02-08T08:44:56;25.83;;;11.18;;
37859;SDS011;23698;52.014;5.190;2023-02-08T08:47:43;27.98;;;11.57;;
37859;SDS011;23698;52.014;5.190;2023-02-08T08:50:29;24.38;;;12.88;;
37859;SDS011;23698;52.014;5.190;2023-02-08T08:53:16;24.42;;;12.00;;
37859;SDS011;23698;52.014;5.190;2023-02-08T08:56:03;24.30;;;11.98;;
37859;SDS011;23698;52.014;5.190;2023-02-08T08:58:52;20.30;;;10.75;;
37859;SDS011;23698;52.014;5.190;2023-02-08T09:01:39;25.10;;;11.63;;
37859;SDS011;23698;52.014;5.190;2023-02-08T09:04:26;18.63;;;10.25;;
37859;SDS011;23698;52.014;5.190;2023-02-08T09:07:14;21.05;;;10.85;;
37859;SDS011;23698;52.014;5.190;2023-02-08T09:10:01;21.38;;;11.02;;
37859;SDS011;23698;52.014;5.190;2023-02-08T09:12:47;26.42;;;12.35;;
37859;SDS011;23698;52.014;5.190;2023-02-08T09:15:38;19.70;;;11.57;;
37859;SDS011;23698;52.014;5.190;2023-02-08T09:18:26;20.05;;;10.77;;
37859;SDS011;23698;52.014;5.190;2023-02-08T09:21:14;21.05;;;11.27;;
37859;SDS011;23698;52.014;5.190;2023-02-08T09:24:02;22.20;;;11.38;;
37859;SDS011;23698;52.014;5.190;2023-02-08T09:26:49;21.30;;;10.55;;
37859;SDS011;23698;52.014;5.190;2023-02-08T09:29:36;21.05;;;10.95;;
37859;SDS011;23698;52.014;5.190;2023-02-08T09:32:24;26.83;;;11.35;;
37859;SDS011;23698;52.014;5.190;2023-02-08T09:35:11;20.00;;;10.55;;
37859;SDS011;23698;52.014;5.190;2023-02-08T09:37:59;18.00;;;10.27;;
37859;SDS011;23698;52.014;5.190;2023-02-08T09:40:51;21.98;;;10.02;;
37859;SDS011;23698;52.014;5.190;2023-02-08T09:43:44;18.38;;;10.15;;
37859;SDS011;23698;52.014;5.190;2023-02-08T09:46:40;19.85;;;10.88;;
37859;SDS011;23698;52.014;5.190;2023-02-08T09:49:33;21.50;;;11.43;;
37859;SDS011;23698;52.014;5.190;2023-02-08T09:52:27;22.13;;;10.65;;
37859;SDS011;23698;52.014;5.190;2023-02-08T09:55:21;19.85;;;10.10;;
37859;SDS011;23698;52.014;5.190;2023-02-08T09:58:16;22.10;;;10.32;;
37859;SDS011;23698;52.014;5.190;2023-02-08T10:01:10;19.45;;;11.27;;
37859;SDS011;23698;52.014;5.190;2023-02-08T10:04:04;28.17;;;11.07;;
37859;SDS011;23698;52.014;5.190;2023-02-08T10:06:55;20.42;;;9.52;;
37859;SDS011;23698;52.014;5.190;2023-02-08T10:09:42;26.42;;;11.00;;
37859;SDS011;23698;52.014;5.190;2023-02-08T10:12:32;19.70;;;10.55;;
37859;SDS011;23698;52.014;5.190;2023-02-08T10:15:29;18.00;;;10.15;;
37859;SDS011;23698;52.014;5.190;2023-02-08T10:18:26;19.80;;;10.20;;
37859;SDS011;23698;52.014;5.190;2023-02-08T10:21:24;16.17;;;9.50;;
37859;SDS011;23698;52.014;5.190;2023-02-08T10:24:25;21.15;;;9.20;;
37859;SDS011;23698;52.014;5.190;2023-02-08T10:27:25;17.98;;;10.13;;
37859;SDS011;23698;52.014;5.190;2023-02-08T10:30:29;21.20;;;10.63;;
37859;SDS011;23698;52.014;5.190;2023-02-08T10:33:25;16.85;;;9.98;;
37859;SDS011;23698;52.014;5.190;2023-02-08T10:36:17;18.25;;;9.75;;
37859;SDS011;23698;52.014;5.190;2023-02-08T10:39:09;20.20;;;9.75;;
37859;SDS011;23698;52.014;5.190;2023-02-08T10:42:02;19.55;;;9.38;;
37859;SDS011;23698;52.014;5.190;2023-02-08T10:44:54;16.67;;;9.68;;
37859;SDS011;23698;52.014;5.190;2023-02-08T10:48:07;17.50;;;10.13;;
37859;SDS011;23698;52.014;5.190;2023-02-08T10:50:59;17.25;;;9.43;;
37859;SDS011;23698;52.014;5.190;2023-02-08T10:53:46;19.67;;;9.65;;
37859;SDS011;23698;52.014;5.190;2023-02-08T10:56:36;18.63;;;9.32;;
37859;SDS011;23698;52.014;5.190;2023-02-08T10:59:29;15.52;;;8.63;;
37859;SDS011;23698;52.014;5.190;2023-02-08T11:02:20;15.52;;;9.10;;
37859;SDS011;23698;52.014;5.190;2023-02-08T11:05:11;19.85;;;8.90;;
37859;SDS011;23698;52.014;5.190;2023-02-08T11:08:06;14.95;;;8.85;;
37859;SDS011;23698;52.014;5.190;2023-02-08T11:10:57;17.02;;;9.40;;
37859;SDS011;23698;52.014;5.190;2023-02-08T11:13:46;19.13;;;9.40;;
37859;SDS011;23698;52.014;5.190;2023-02-08T11:16:36;15.02;;;9.07;;
37859;SDS011;23698;52.014;5.190;2023-02-08T11:19:28;15.85;;;8.38;;
37859;SDS011;23698;52.014;5.190;2023-02-08T11:22:21;20.83;;;8.90;;
37859;SDS011;23698;52.014;5.190;2023-02-08T11:25:29;14.90;;;8.77;;
37859;SDS011;23698;52.014;5.190;2023-02-08T11:28:21;13.48;;;8.23;;
37859;SDS011;23698;52.014;5.190;2023-02-08T11:34:03;14.07;;;7.63;;
37859;SDS011;23698;52.014;5.190;2023-02-08T11:36:51;16.00;;;8.45;;
37859;SDS011;23698;52.014;5.190;2023-02-08T11:39:39;16.05;;;8.38;;
37859;SDS011;23698;52.014;5.190;2023-02-08T11:42:28;16.45;;;8.75;;
37859;SDS011;23698;52.014;5.190;2023-02-08T11:45:20;14.35;;;8.70;;
37859;SDS011;23698;52.014;5.190;2023-02-08T11:48:13;15.13;;;8.25;;
37859;SDS011;23698;52.014;5.190;2023-02-08T11:51:10;13.75;;;8.00;;
37859;SDS011;23698;52.014;5.190;2023-02-08T11:54:09;17.70;;;8.13;;
37859;SDS011;23698;52.014;5.190;2023-02-08T11:57:19;12.13;;;7.40;;
37859;SDS011;23698;52.014;5.190;2023-02-08T12:00:14;16.63;;;8.20;;
37859;SDS011;23698;52.014;5.190;2023-02-08T12:03:05;15.05;;;8.80;;
37859;SDS011;23698;52.014;5.190;2023-02-08T12:06:02;14.73;;;7.63;;
37859;SDS011;23698;52.014;5.190;2023-02-08T12:09:06;12.90;;;8.13;;
37859;SDS011;23698;52.014;5.190;2023-02-08T12:12:04;17.10;;;8.55;;
37859;SDS011;23698;52.014;5.190;2023-02-08T12:15:04;15.65;;;7.90;;
37859;SDS011;23698;52.014;5.190;2023-02-08T12:21:27;15.02;;;8.43;;
37859;SDS011;23698;52.014;5.190;2023-02-08T12:24:24;11.23;;;7.18;;
37859;SDS011;23698;52.014;5.190;2023-02-08T12:27:23;12.23;;;7.18;;
37859;SDS011;23698;52.014;5.190;2023-02-08T12:30:24;12.43;;;7.13;;
37859;SDS011;23698;52.014;5.190;2023-02-08T12:33:19;13.55;;;6.55;;
37859;SDS011;23698;52.014;5.190;2023-02-08T12:36:23;12.45;;;7.10;;
37859;SDS011;23698;52.014;5.190;2023-02-08T12:39:24;13.45;;;7.20;;
37859;SDS011;23698;52.014;5.190;2023-02-08T12:42:43;16.35;;;7.28;;
37859;SDS011;23698;52.014;5.190;2023-02-08T12:45:47;12.30;;;6.65;;
37859;SDS011;23698;52.014;5.190;2023-02-08T12:48:55;12.35;;;6.93;;
37859;SDS011;23698;52.014;5.190;2023-02-08T12:51:52;12.23;;;6.60;;
37859;SDS011;23698;52.014;5.190;2023-02-08T12:54:48;11.55;;;7.15;;
37859;SDS011;23698;52.014;5.190;2023-02-08T12:57:40;13.23;;;6.53;;
37859;SDS011;23698;52.014;5.190;2023-02-08T13:00:31;10.43;;;6.18;;
37859;SDS011;23698;52.014;5.190;2023-02-08T13:03:24;14.35;;;7.25;;
37859;SDS011;23698;52.014;5.190;2023-02-08T13:06:21;12.50;;;7.38;;
37859;SDS011;23698;52.014;5.190;2023-02-08T13:09:15;12.32;;;6.68;;
37859;SDS011;23698;52.014;5.190;2023-02-08T13:12:07;12.27;;;6.85;;
37859;SDS011;23698;52.014;5.190;2023-02-08T13:15:02;11.27;;;7.25;;
37859;SDS011;23698;52.014;5.190;2023-02-08T13:17:56;13.65;;;6.60;;
37859;SDS011;23698;52.014;5.190;2023-02-08T13:20:45;12.70;;;6.30;;
37859;SDS011;23698;52.014;5.190;2023-02-08T13:23:36;10.15;;;5.72;;
37859;SDS011;23698;52.014;5.190;2023-02-08T13:26:38;12.18;;;6.35;;
37859;SDS011;23698;52.014;5.190;2023-02-08T13:29:26;9.60;;;6.00;;
37859;SDS011;23698;52.014;5.190;2023-02-08T13:32:15;11.60;;;5.82;;
37859;SDS011;23698;52.014;5.190;2023-02-08T13:35:10;13.55;;;6.97;;
37859;SDS011;23698;52.014;5.190;2023-02-08T13:38:01;10.48;;;6.15;;
37859;SDS011;23698;52.014;5.190;2023-02-08T13:40:49;11.23;;;6.38;;
37859;SDS011;23698;52.014;5.190;2023-02-08T13:43:51;13.73;;;6.40;;
37859;SDS011;23698;52.014;5.190;2023-02-08T13:46:43;9.32;;;5.30;;
37859;SDS011;23698;52.014;5.190;2023-02-08T13:49:40;10.70;;;5.75;;
37859;SDS011;23698;52.014;5.190;2023-02-08T13:55:51;9.60;;;6.13;;
37859;SDS011;23698;52.014;5.190;2023-02-08T14:02:16;10.18;;;6.35;;
37859;SDS011;23698;52.014;5.190;2023-02-08T14:08:35;12.60;;;6.50;;
37859;SDS011;23698;52.014;5.190;2023-02-08T14:11:30;13.07;;;6.75;;
37859;SDS011;23698;52.014;5.190;2023-02-08T14:14:28;11.15;;;6.18;;
37859;SDS011;23698;52.014;5.190;2023-02-08T14:17:19;11.82;;;6.50;;
37859;SDS011;23698;52.014;5.190;2023-02-08T14:20:16;11.52;;;7.10;;
37859;SDS011;23698;52.014;5.190;2023-02-08T14:23:06;10.73;;;6.85;;
37859;SDS011;23698;52.014;5.190;2023-02-08T14:26:06;11.23;;;6.57;;
37859;SDS011;23698;52.014;5.190;2023-02-08T14:28:54;11.93;;;7.20;;
37859;SDS011;23698;52.014;5.190;2023-02-08T14:31:44;11.52;;;6.53;;
37859;SDS011;23698;52.014;5.190;2023-02-08T14:34:32;10.32;;;6.65;;
37859;SDS011;23698;52.014;5.190;2023-02-08T14:37:25;9.93;;;6.05;;
37859;SDS011;23698;52.014;5.190;2023-02-08T14:40:30;11.30;;;7.10;;
37859;SDS011;23698;52.014;5.190;2023-02-08T14:43:27;9.15;;;5.55;;
37859;SDS011;23698;52.014;5.190;2023-02-08T14:49:33;14.60;;;5.93;;
37859;SDS011;23698;52.014;5.190;2023-02-08T14:52:23;10.07;;;6.35;;
37859;SDS011;23698;52.014;5.190;2023-02-08T14:55:12;12.98;;;6.35;;
37859;SDS011;23698;52.014;5.190;2023-02-08T14:58:02;10.82;;;6.10;;
37859;SDS011;23698;52.014;5.190;2023-02-08T15:00:53;11.63;;;5.75;;
37859;SDS011;23698;52.014;5.190;2023-02-08T15:03:41;10.93;;;6.05;;
37859;SDS011;23698;52.014;5.190;2023-02-08T15:06:38;9.48;;;4.82;;
37859;SDS011;23698;52.014;5.190;2023-02-08T15:09:39;8.18;;;5.25;;
37859;SDS011;23698;52.014;5.190;2023-02-08T15:12:27;9.32;;;4.97;;
37859;SDS011;23698;52.014;5.190;2023-02-08T15:15:24;6.75;;;4.00;;
37859;SDS011;23698;52.014;5.190;2023-02-08T15:18:15;8.93;;;4.13;;
37859;SDS011;23698;52.014;5.190;2023-02-08T15:23:58;5.47;;;3.00;;
37859;SDS011;23698;52.014;5.190;2023-02-08T15:26:49;5.90;;;3.60;;
37859;SDS011;23698;52.014;5.190;2023-02-08T15:29:39;6.97;;;3.70;;
37859;SDS011;23698;52.014;5.190;2023-02-08T15:32:29;8.02;;;3.78;;
37859;SDS011;23698;52.014;5.190;2023-02-08T15:35:17;8.52;;;3.60;;
37859;SDS011;23698;52.014;5.190;2023-02-08T15:38:08;6.88;;;3.25;;
37859;SDS011;23698;52.014;5.190;2023-02-08T15:41:03;4.97;;;2.95;;
37859;SDS011;23698;52.014;5.190;2023-02-08T15:43:58;6.15;;;3.22;;
37859;SDS011;23698;52.014;5.190;2023-02-08T15:46:46;4.45;;;2.92;;
37859;SDS011;23698;52.014;5.190;2023-02-08T15:49:35;3.95;;;2.50;;
37859;SDS011;23698;52.014;5.190;2023-02-08T15:52:26;5.13;;;2.88;;
37859;SDS011;23698;52.014;5.190;2023-02-08T15:55:15;5.30;;;2.83;;
37859;SDS011;23698;52.014;5.190;2023-02-08T15:58:04;4.57;;;2.83;;
37859;SDS011;23698;52.014;5.190;2023-02-08T16:00:54;6.93;;;3.30;;
37859;SDS011;23698;52.014;5.190;2023-02-08T16:03:45;4.03;;;2.53;;
37859;SDS011;23698;52.014;5.190;2023-02-08T16:06:33;4.68;;;2.90;;
37859;SDS011;23698;52.014;5.190;2023-02-08T16:09:25;8.73;;;2.83;;
37859;SDS011;23698;52.014;5.190;2023-02-08T16:12:17;8.43;;;3.20;;
37859;SDS011;23698;52.014;5.190;2023-02-08T16:18:34;7.97;;;4.15;;
37859;SDS011;23698;52.014;5.190;2023-02-08T16:21:26;6.55;;;3.42;;
37859;SDS011;23698;52.014;5.190;2023-02-08T16:24:18;5.82;;;3.80;;
37859;SDS011;23698;52.014;5.190;2023-02-08T16:27:14;8.20;;;3.83;;
37859;SDS011;23698;52.014;5.190;2023-02-08T16:30:13;7.50;;;4.40;;
37859;SDS011;23698;52.014;5.190;2023-02-08T16:33:07;9.00;;;3.65;;
37859;SDS011;23698;52.014;5.190;2023-02-08T16:35:54;10.95;;;3.75;;
37859;SDS011;23698;52.014;5.190;2023-02-08T16:38:59;10.02;;;4.30;;
37859;SDS011;23698;52.014;5.190;2023-02-08T16:42:19;8.95;;;3.92;;
37859;SDS011;23698;52.014;5.190;2023-02-08T16:45:18;6.88;;;3.85;;
37859;SDS011;23698;52.014;5.190;2023-02-08T16:51:21;9.30;;;4.40;;
37859;SDS011;23698;52.014;5.190;2023-02-08T16:54:10;8.35;;;3.92;;
37859;SDS011;23698;52.014;5.190;2023-02-08T16:57:03;6.28;;;4.28;;
37859;SDS011;23698;52.014;5.190;2023-02-08T16:59:50;12.60;;;6.47;;
37859;SDS011;23698;52.014;5.190;2023-02-08T17:02:40;8.15;;;4.05;;
37859;SDS011;23698;52.014;5.190;2023-02-08T17:05:29;9.00;;;4.65;;
37859;SDS011;23698;52.014;5.190;2023-02-08T17:08:19;8.57;;;4.65;;
37859;SDS011;23698;52.014;5.190;2023-02-08T17:11:07;7.80;;;4.30;;
37859;SDS011;23698;52.014;5.190;2023-02-08T17:13:54;11.20;;;6.50;;
37859;SDS011;23698;52.014;5.190;2023-02-08T17:16:42;13.02;;;7.13;;
37859;SDS011;23698;52.014;5.190;2023-02-08T17:19:29;14.82;;;7.57;;
37859;SDS011;23698;52.014;5.190;2023-02-08T17:22:17;11.75;;;5.90;;
37859;SDS011;23698;52.014;5.190;2023-02-08T17:25:04;14.73;;;7.75;;